sensor_id;sensor_type;location;lat;lon;timestamp;P1;durP1;ratioP1;P2;durP2;ratioP2
13263;SDS011;6700;51.988;7.646;2022-11-27T00:01:25;9.13;;;4.40;;
13263;SDS011;6700;51.988;7.646;2022-11-27T00:03:53;8.07;;;5.13;;
13263;SDS011;6700;51.988;7.646;2022-11-27T00:06:21;6.67;;;4.63;;
13263;SDS011;6700;51.988;7.646;2022-11-27T00:08:49;10.30;;;5.00;;
13263;SDS011;6700;51.988;7.646;2022-11-27T00:11:18;7.40;;;5.40;;
13263;SDS011;6700;51.988;7.646;2022-11-27T00:13:45;12.67;;;5.57;;
13263;SDS011;6700;51.988;7.646;2022-11-27T00:16:12;13.43;;;4.97;;
13263;SDS011;6700;51.988;7.646;2022-11-27T00:18:40;10.83;;;4.77;;
13263;SDS011;6700;51.988;7.646;2022-11-27T00:21:09;8.90;;;4.80;;
13263;SDS011;6700;51.988;7.646;2022-11-27T00:23:37;10.53;;;4.60;;
13263;SDS011;6700;51.988;7.646;2022-11-27T00:26:05;13.27;;;5.43;;
13263;SDS011;6700;51.988;7.646;2022-11-27T00:28:32;13.13;;;5.80;;
13263;SDS011;6700;51.988;7.646;2022-11-27T00:31:01;12.37;;;5.93;;
13263;SDS011;6700;51.988;7.646;2022-11-27T00:33:29;9.67;;;4.87;;
13263;SDS011;6700;51.988;7.646;2022-11-27T00:36:00;11.40;;;5.07;;
13263;SDS011;6700;51.988;7.646;2022-11-27T00:38:27;11.63;;;4.17;;
13263;SDS011;6700;51.988;7.646;2022-11-27T00:43:45;9.27;;;5.13;;
13263;SDS011;6700;51.988;7.646;2022-11-27T00:46:13;9.83;;;5.10;;
13263;SDS011;6700;51.988;7.646;2022-11-27T00:48:40;16.60;;;4.90;;
13263;SDS011;6700;51.988;7.646;2022-11-27T00:51:08;12.80;;;4.70;;
13263;SDS011;6700;51.988;7.646;2022-11-27T00:53:36;10.37;;;4.80;;
13263;SDS011;6700;51.988;7.646;2022-11-27T00:56:03;14.90;;;5.10;;
13263;SDS011;6700;51.988;7.646;2022-11-27T00:58:30;8.50;;;5.00;;
13263;SDS011;6700;51.988;7.646;2022-11-27T01:01:02;10.13;;;5.37;;
13263;SDS011;6700;51.988;7.646;2022-11-27T01:03:29;10.87;;;5.27;;
13263;SDS011;6700;51.988;7.646;2022-11-27T01:06:00;13.90;;;5.70;;
13263;SDS011;6700;51.988;7.646;2022-11-27T01:08:28;12.73;;;5.53;;
13263;SDS011;6700;51.988;7.646;2022-11-27T01:10:55;14.27;;;5.53;;
13263;SDS011;6700;51.988;7.646;2022-11-27T01:13:23;12.17;;;5.20;;
13263;SDS011;6700;51.988;7.646;2022-11-27T01:16:05;10.03;;;5.43;;
13263;SDS011;6700;51.988;7.646;2022-11-27T01:18:33;13.13;;;5.63;;
13263;SDS011;6700;51.988;7.646;2022-11-27T01:21:00;11.97;;;5.23;;
13263;SDS011;6700;51.988;7.646;2022-11-27T01:23:27;9.07;;;5.50;;
13263;SDS011;6700;51.988;7.646;2022-11-27T01:25:54;10.37;;;5.43;;
13263;SDS011;6700;51.988;7.646;2022-11-27T01:28:22;10.63;;;5.77;;
13263;SDS011;6700;51.988;7.646;2022-11-27T01:30:49;9.80;;;5.57;;
13263;SDS011;6700;51.988;7.646;2022-11-27T01:33:17;12.87;;;6.30;;
13263;SDS011;6700;51.988;7.646;2022-11-27T01:38:21;8.40;;;4.97;;
13263;SDS011;6700;51.988;7.646;2022-11-27T01:40:49;15.57;;;5.57;;
13263;SDS011;6700;51.988;7.646;2022-11-27T01:43:16;10.07;;;5.60;;
13263;SDS011;6700;51.988;7.646;2022-11-27T01:45:43;8.60;;;5.57;;
13263;SDS011;6700;51.988;7.646;2022-11-27T01:48:11;10.87;;;5.40;;
13263;SDS011;6700;51.988;7.646;2022-11-27T01:50:39;9.87;;;5.10;;
13263;SDS011;6700;51.988;7.646;2022-11-27T01:53:09;9.93;;;5.33;;
13263;SDS011;6700;51.988;7.646;2022-11-27T01:55:40;9.73;;;5.40;;
13263;SDS011;6700;51.988;7.646;2022-11-27T01:58:10;13.77;;;6.03;;
13263;SDS011;6700;51.988;7.646;2022-11-27T02:00:38;12.07;;;5.50;;
13263;SDS011;6700;51.988;7.646;2022-11-27T02:03:05;11.00;;;5.10;;
13263;SDS011;6700;51.988;7.646;2022-11-27T02:05:33;8.67;;;5.20;;
13263;SDS011;6700;51.988;7.646;2022-11-27T02:08:02;12.77;;;6.00;;
13263;SDS011;6700;51.988;7.646;2022-11-27T02:10:33;10.53;;;5.07;;
13263;SDS011;6700;51.988;7.646;2022-11-27T02:13:06;16.67;;;6.33;;
13263;SDS011;6700;51.988;7.646;2022-11-27T02:29:27;6.33;;;4.97;;
13263;SDS011;6700;51.988;7.646;2022-11-27T02:37:09;7.50;;;4.57;;
13263;SDS011;6700;51.988;7.646;2022-11-27T02:39:52;7.20;;;4.77;;
13263;SDS011;6700;51.988;7.646;2022-11-27T02:42:22;12.60;;;5.47;;
13263;SDS011;6700;51.988;7.646;2022-11-27T02:44:54;9.67;;;5.17;;
13263;SDS011;6700;51.988;7.646;2022-11-27T02:47:22;6.97;;;5.00;;
13263;SDS011;6700;51.988;7.646;2022-11-27T02:49:50;9.53;;;5.10;;
13263;SDS011;6700;51.988;7.646;2022-11-27T02:52:17;11.73;;;5.23;;
13263;SDS011;6700;51.988;7.646;2022-11-27T02:54:46;8.73;;;4.87;;
13263;SDS011;6700;51.988;7.646;2022-11-27T02:57:13;7.40;;;4.50;;
13263;SDS011;6700;51.988;7.646;2022-11-27T02:59:41;7.30;;;5.33;;
13263;SDS011;6700;51.988;7.646;2022-11-27T03:02:13;6.67;;;4.70;;
13263;SDS011;6700;51.988;7.646;2022-11-27T03:04:43;10.33;;;5.17;;
13263;SDS011;6700;51.988;7.646;2022-11-27T03:07:12;12.13;;;4.77;;
13263;SDS011;6700;51.988;7.646;2022-11-27T03:09:42;9.73;;;4.73;;
13263;SDS011;6700;51.988;7.646;2022-11-27T03:12:09;8.33;;;4.93;;
13263;SDS011;6700;51.988;7.646;2022-11-27T03:14:37;10.93;;;4.90;;
13263;SDS011;6700;51.988;7.646;2022-11-27T03:22:26;10.80;;;6.50;;
13263;SDS011;6700;51.988;7.646;2022-11-27T03:24:53;10.07;;;5.43;;
13263;SDS011;6700;51.988;7.646;2022-11-27T03:27:23;12.53;;;6.20;;
13263;SDS011;6700;51.988;7.646;2022-11-27T03:29:53;11.63;;;5.80;;
13263;SDS011;6700;51.988;7.646;2022-11-27T03:32:22;8.20;;;5.80;;
13263;SDS011;6700;51.988;7.646;2022-11-27T03:34:49;11.07;;;5.07;;
13263;SDS011;6700;51.988;7.646;2022-11-27T03:37:16;13.27;;;5.13;;
13263;SDS011;6700;51.988;7.646;2022-11-27T03:39:44;11.53;;;6.07;;
13263;SDS011;6700;51.988;7.646;2022-11-27T03:50:09;7.47;;;5.50;;
13263;SDS011;6700;51.988;7.646;2022-11-27T03:52:38;10.10;;;6.83;;
13263;SDS011;6700;51.988;7.646;2022-11-27T03:55:14;7.40;;;5.60;;
13263;SDS011;6700;51.988;7.646;2022-11-27T03:58:02;6.23;;;5.03;;
13263;SDS011;6700;51.988;7.646;2022-11-27T04:00:32;9.40;;;6.00;;
13263;SDS011;6700;51.988;7.646;2022-11-27T04:03:00;7.53;;;5.37;;
13263;SDS011;6700;51.988;7.646;2022-11-27T04:05:28;11.50;;;6.80;;
13263;SDS011;6700;51.988;7.646;2022-11-27T04:07:55;11.67;;;5.87;;
13263;SDS011;6700;51.988;7.646;2022-11-27T04:10:22;8.70;;;6.03;;
13263;SDS011;6700;51.988;7.646;2022-11-27T04:12:49;9.10;;;6.00;;
13263;SDS011;6700;51.988;7.646;2022-11-27T04:15:17;12.67;;;5.87;;
13263;SDS011;6700;51.988;7.646;2022-11-27T04:17:44;6.70;;;5.33;;
13263;SDS011;6700;51.988;7.646;2022-11-27T04:20:14;14.50;;;6.40;;
13263;SDS011;6700;51.988;7.646;2022-11-27T04:22:41;12.70;;;6.60;;
13263;SDS011;6700;51.988;7.646;2022-11-27T04:25:08;7.13;;;5.17;;
13263;SDS011;6700;51.988;7.646;2022-11-27T04:27:35;12.30;;;7.23;;
13263;SDS011;6700;51.988;7.646;2022-11-27T04:30:02;10.87;;;6.27;;
13263;SDS011;6700;51.988;7.646;2022-11-27T04:32:30;10.87;;;6.27;;
13263;SDS011;6700;51.988;7.646;2022-11-27T04:34:57;9.57;;;6.23;;
13263;SDS011;6700;51.988;7.646;2022-11-27T04:37:24;12.50;;;6.37;;
13263;SDS011;6700;51.988;7.646;2022-11-27T04:39:51;9.97;;;7.13;;
13263;SDS011;6700;51.988;7.646;2022-11-27T04:42:18;19.27;;;7.40;;
13263;SDS011;6700;51.988;7.646;2022-11-27T04:44:45;10.57;;;6.60;;
13263;SDS011;6700;51.988;7.646;2022-11-27T04:47:12;12.70;;;6.97;;
13263;SDS011;6700;51.988;7.646;2022-11-27T04:49:39;9.53;;;6.67;;
13263;SDS011;6700;51.988;7.646;2022-11-27T04:52:06;9.37;;;6.97;;
13263;SDS011;6700;51.988;7.646;2022-11-27T04:54:33;11.70;;;7.50;;
13263;SDS011;6700;51.988;7.646;2022-11-27T04:57:00;15.03;;;7.67;;
13263;SDS011;6700;51.988;7.646;2022-11-27T04:59:28;9.53;;;6.70;;
13263;SDS011;6700;51.988;7.646;2022-11-27T05:01:55;10.53;;;6.37;;
13263;SDS011;6700;51.988;7.646;2022-11-27T05:04:22;12.40;;;7.33;;
13263;SDS011;6700;51.988;7.646;2022-11-27T05:06:49;8.27;;;5.93;;
13263;SDS011;6700;51.988;7.646;2022-11-27T05:09:17;13.93;;;6.70;;
13263;SDS011;6700;51.988;7.646;2022-11-27T05:11:44;10.40;;;6.77;;
13263;SDS011;6700;51.988;7.646;2022-11-27T05:14:11;9.40;;;6.47;;
13263;SDS011;6700;51.988;7.646;2022-11-27T05:16:43;8.53;;;6.00;;
13263;SDS011;6700;51.988;7.646;2022-11-27T05:19:11;8.87;;;6.13;;
13263;SDS011;6700;51.988;7.646;2022-11-27T05:21:39;11.47;;;6.67;;
13263;SDS011;6700;51.988;7.646;2022-11-27T05:24:07;9.67;;;6.13;;
13263;SDS011;6700;51.988;7.646;2022-11-27T05:26:34;10.20;;;5.93;;
13263;SDS011;6700;51.988;7.646;2022-11-27T05:29:01;13.13;;;7.13;;
13263;SDS011;6700;51.988;7.646;2022-11-27T05:31:28;9.87;;;6.17;;
13263;SDS011;6700;51.988;7.646;2022-11-27T05:33:55;9.73;;;6.37;;
13263;SDS011;6700;51.988;7.646;2022-11-27T05:36:23;7.10;;;5.87;;
13263;SDS011;6700;51.988;7.646;2022-11-27T05:38:50;8.63;;;6.03;;
13263;SDS011;6700;51.988;7.646;2022-11-27T05:41:17;7.57;;;6.20;;
13263;SDS011;6700;51.988;7.646;2022-11-27T05:43:44;5.90;;;5.10;;
13263;SDS011;6700;51.988;7.646;2022-11-27T05:46:13;8.87;;;6.20;;
13263;SDS011;6700;51.988;7.646;2022-11-27T05:48:40;7.43;;;5.80;;
13263;SDS011;6700;51.988;7.646;2022-11-27T05:51:07;8.17;;;5.10;;
13263;SDS011;6700;51.988;7.646;2022-11-27T05:53:35;8.00;;;5.83;;
13263;SDS011;6700;51.988;7.646;2022-11-27T05:56:06;6.70;;;5.50;;
13263;SDS011;6700;51.988;7.646;2022-11-27T05:58:33;6.83;;;5.40;;
13263;SDS011;6700;51.988;7.646;2022-11-27T06:01:00;11.00;;;5.87;;
13263;SDS011;6700;51.988;7.646;2022-11-27T06:03:28;10.40;;;5.50;;
13263;SDS011;6700;51.988;7.646;2022-11-27T06:05:55;10.10;;;6.00;;
13263;SDS011;6700;51.988;7.646;2022-11-27T06:08:22;11.17;;;6.10;;
13263;SDS011;6700;51.988;7.646;2022-11-27T06:10:49;8.87;;;6.30;;
13263;SDS011;6700;51.988;7.646;2022-11-27T06:13:17;10.17;;;6.03;;
13263;SDS011;6700;51.988;7.646;2022-11-27T06:15:44;8.60;;;5.83;;
13263;SDS011;6700;51.988;7.646;2022-11-27T06:18:11;6.50;;;4.87;;
13263;SDS011;6700;51.988;7.646;2022-11-27T06:20:38;9.00;;;5.47;;
13263;SDS011;6700;51.988;7.646;2022-11-27T06:23:10;13.57;;;5.73;;
13263;SDS011;6700;51.988;7.646;2022-11-27T06:25:37;9.50;;;4.83;;
13263;SDS011;6700;51.988;7.646;2022-11-27T06:28:04;9.83;;;5.50;;
13263;SDS011;6700;51.988;7.646;2022-11-27T06:30:31;8.90;;;5.00;;
13263;SDS011;6700;51.988;7.646;2022-11-27T06:32:58;8.00;;;5.33;;
13263;SDS011;6700;51.988;7.646;2022-11-27T06:35:25;7.57;;;5.00;;
13263;SDS011;6700;51.988;7.646;2022-11-27T06:37:52;6.37;;;5.20;;
13263;SDS011;6700;51.988;7.646;2022-11-27T06:40:19;10.70;;;5.87;;
13263;SDS011;6700;51.988;7.646;2022-11-27T06:42:46;11.00;;;5.43;;
13263;SDS011;6700;51.988;7.646;2022-11-27T06:45:13;7.57;;;5.53;;
13263;SDS011;6700;51.988;7.646;2022-11-27T06:47:41;6.73;;;5.20;;
13263;SDS011;6700;51.988;7.646;2022-11-27T06:50:08;11.67;;;5.57;;
13263;SDS011;6700;51.988;7.646;2022-11-27T06:52:35;8.27;;;5.63;;
13263;SDS011;6700;51.988;7.646;2022-11-27T06:55:06;10.63;;;4.50;;
13263;SDS011;6700;51.988;7.646;2022-11-27T06:57:33;9.73;;;5.73;;
13263;SDS011;6700;51.988;7.646;2022-11-27T07:00:00;7.83;;;5.40;;
13263;SDS011;6700;51.988;7.646;2022-11-27T07:02:27;10.90;;;6.10;;
13263;SDS011;6700;51.988;7.646;2022-11-27T07:04:55;8.17;;;4.80;;
13263;SDS011;6700;51.988;7.646;2022-11-27T07:07:22;7.90;;;4.73;;
13263;SDS011;6700;51.988;7.646;2022-11-27T07:09:49;8.93;;;5.50;;
13263;SDS011;6700;51.988;7.646;2022-11-27T07:12:16;8.37;;;4.70;;
13263;SDS011;6700;51.988;7.646;2022-11-27T07:14:43;6.73;;;4.70;;
13263;SDS011;6700;51.988;7.646;2022-11-27T07:17:10;8.00;;;5.27;;
13263;SDS011;6700;51.988;7.646;2022-11-27T07:19:37;8.70;;;5.23;;
13263;SDS011;6700;51.988;7.646;2022-11-27T07:22:05;7.77;;;4.87;;
13263;SDS011;6700;51.988;7.646;2022-11-27T07:24:32;9.67;;;5.30;;
13263;SDS011;6700;51.988;7.646;2022-11-27T07:26:59;10.23;;;5.20;;
13263;SDS011;6700;51.988;7.646;2022-11-27T07:29:26;7.20;;;4.47;;
13263;SDS011;6700;51.988;7.646;2022-11-27T07:31:53;6.33;;;5.60;;
13263;SDS011;6700;51.988;7.646;2022-11-27T07:34:20;7.07;;;4.03;;
13263;SDS011;6700;51.988;7.646;2022-11-27T07:36:47;6.97;;;4.00;;
13263;SDS011;6700;51.988;7.646;2022-11-27T07:39:15;5.07;;;4.43;;
13263;SDS011;6700;51.988;7.646;2022-11-27T07:41:59;9.47;;;5.33;;
13263;SDS011;6700;51.988;7.646;2022-11-27T07:44:46;8.97;;;4.90;;
13263;SDS011;6700;51.988;7.646;2022-11-27T07:47:13;6.40;;;4.10;;
13263;SDS011;6700;51.988;7.646;2022-11-27T07:49:40;9.33;;;4.27;;
13263;SDS011;6700;51.988;7.646;2022-11-27T07:52:07;7.40;;;4.33;;
13263;SDS011;6700;51.988;7.646;2022-11-27T07:54:34;9.63;;;5.17;;
13263;SDS011;6700;51.988;7.646;2022-11-27T07:57:01;7.17;;;5.07;;
13263;SDS011;6700;51.988;7.646;2022-11-27T07:59:28;5.97;;;4.47;;
13263;SDS011;6700;51.988;7.646;2022-11-27T08:01:55;8.00;;;5.23;;
13263;SDS011;6700;51.988;7.646;2022-11-27T08:04:22;13.30;;;5.43;;
13263;SDS011;6700;51.988;7.646;2022-11-27T08:06:50;6.70;;;5.57;;
13263;SDS011;6700;51.988;7.646;2022-11-27T08:09:17;7.57;;;5.10;;
13263;SDS011;6700;51.988;7.646;2022-11-27T08:11:44;6.83;;;5.10;;
13263;SDS011;6700;51.988;7.646;2022-11-27T08:14:11;7.20;;;4.70;;
13263;SDS011;6700;51.988;7.646;2022-11-27T08:16:38;7.53;;;5.00;;
13263;SDS011;6700;51.988;7.646;2022-11-27T08:19:06;9.27;;;5.00;;
13263;SDS011;6700;51.988;7.646;2022-11-27T08:21:33;10.37;;;5.20;;
13263;SDS011;6700;51.988;7.646;2022-11-27T08:24:00;7.43;;;5.00;;
13263;SDS011;6700;51.988;7.646;2022-11-27T08:26:27;9.70;;;4.57;;
13263;SDS011;6700;51.988;7.646;2022-11-27T08:28:55;8.83;;;5.27;;
13263;SDS011;6700;51.988;7.646;2022-11-27T08:31:22;6.73;;;5.23;;
13263;SDS011;6700;51.988;7.646;2022-11-27T08:33:49;10.50;;;5.57;;
13263;SDS011;6700;51.988;7.646;2022-11-27T08:36:17;7.67;;;4.93;;
13263;SDS011;6700;51.988;7.646;2022-11-27T08:38:44;7.27;;;4.80;;
13263;SDS011;6700;51.988;7.646;2022-11-27T08:41:11;8.63;;;5.23;;
13263;SDS011;6700;51.988;7.646;2022-11-27T08:43:38;6.77;;;4.83;;
13263;SDS011;6700;51.988;7.646;2022-11-27T08:46:07;7.80;;;5.07;;
13263;SDS011;6700;51.988;7.646;2022-11-27T08:48:34;9.43;;;5.30;;
13263;SDS011;6700;51.988;7.646;2022-11-27T08:51:08;9.53;;;5.23;;
13263;SDS011;6700;51.988;7.646;2022-11-27T08:53:36;8.63;;;5.30;;
13263;SDS011;6700;51.988;7.646;2022-11-27T08:56:05;7.37;;;5.07;;
13263;SDS011;6700;51.988;7.646;2022-11-27T08:58:32;7.70;;;4.67;;
13263;SDS011;6700;51.988;7.646;2022-11-27T09:01:05;6.53;;;5.20;;
13263;SDS011;6700;51.988;7.646;2022-11-27T09:03:32;8.47;;;5.60;;
13263;SDS011;6700;51.988;7.646;2022-11-27T09:05:59;7.90;;;5.10;;
13263;SDS011;6700;51.988;7.646;2022-11-27T09:08:26;7.07;;;5.03;;
13263;SDS011;6700;51.988;7.646;2022-11-27T09:10:53;9.97;;;5.93;;
13263;SDS011;6700;51.988;7.646;2022-11-27T09:13:20;6.83;;;4.80;;
13263;SDS011;6700;51.988;7.646;2022-11-27T09:15:47;7.23;;;5.57;;
13263;SDS011;6700;51.988;7.646;2022-11-27T09:18:14;8.17;;;5.17;;
13263;SDS011;6700;51.988;7.646;2022-11-27T09:20:41;9.00;;;6.13;;
13263;SDS011;6700;51.988;7.646;2022-11-27T09:23:08;8.57;;;5.60;;
13263;SDS011;6700;51.988;7.646;2022-11-27T09:25:39;7.03;;;5.30;;
13263;SDS011;6700;51.988;7.646;2022-11-27T09:28:07;8.20;;;5.27;;
13263;SDS011;6700;51.988;7.646;2022-11-27T09:30:34;11.70;;;5.40;;
13263;SDS011;6700;51.988;7.646;2022-11-27T09:33:01;9.33;;;6.70;;
13263;SDS011;6700;51.988;7.646;2022-11-27T09:35:28;9.00;;;5.93;;
13263;SDS011;6700;51.988;7.646;2022-11-27T09:37:55;9.23;;;5.53;;
13263;SDS011;6700;51.988;7.646;2022-11-27T09:40:22;10.57;;;6.07;;
13263;SDS011;6700;51.988;7.646;2022-11-27T09:42:52;8.37;;;5.77;;
13263;SDS011;6700;51.988;7.646;2022-11-27T09:45:21;8.43;;;5.30;;
13263;SDS011;6700;51.988;7.646;2022-11-27T09:48:00;9.80;;;5.97;;
13263;SDS011;6700;51.988;7.646;2022-11-27T09:50:29;9.57;;;6.30;;
13263;SDS011;6700;51.988;7.646;2022-11-27T09:53:12;7.13;;;5.43;;
13263;SDS011;6700;51.988;7.646;2022-11-27T09:55:42;7.13;;;5.50;;
13263;SDS011;6700;51.988;7.646;2022-11-27T09:58:17;7.83;;;6.23;;
13263;SDS011;6700;51.988;7.646;2022-11-27T10:00:44;12.23;;;6.13;;
13263;SDS011;6700;51.988;7.646;2022-11-27T10:03:13;9.70;;;6.10;;
13263;SDS011;6700;51.988;7.646;2022-11-27T10:06:03;8.97;;;6.10;;
13263;SDS011;6700;51.988;7.646;2022-11-27T10:08:40;10.83;;;6.43;;
13263;SDS011;6700;51.988;7.646;2022-11-27T10:14:03;6.47;;;5.70;;
13263;SDS011;6700;51.988;7.646;2022-11-27T10:16:40;11.03;;;6.30;;
13263;SDS011;6700;51.988;7.646;2022-11-27T10:21:59;9.17;;;7.07;;
13263;SDS011;6700;51.988;7.646;2022-11-27T10:24:38;11.70;;;6.70;;
13263;SDS011;6700;51.988;7.646;2022-11-27T10:27:13;8.50;;;6.50;;
13263;SDS011;6700;51.988;7.646;2022-11-27T10:29:44;11.20;;;7.30;;
13263;SDS011;6700;51.988;7.646;2022-11-27T10:32:18;9.13;;;6.90;;
13263;SDS011;6700;51.988;7.646;2022-11-27T10:35:13;12.67;;;7.23;;
13263;SDS011;6700;51.988;7.646;2022-11-27T10:37:42;7.73;;;5.90;;
13263;SDS011;6700;51.988;7.646;2022-11-27T10:42:50;8.57;;;6.10;;
13263;SDS011;6700;51.988;7.646;2022-11-27T10:45:23;9.27;;;6.60;;
13263;SDS011;6700;51.988;7.646;2022-11-27T10:47:51;9.87;;;6.87;;
13263;SDS011;6700;51.988;7.646;2022-11-27T10:50:18;12.13;;;6.40;;
13263;SDS011;6700;51.988;7.646;2022-11-27T10:52:49;8.73;;;6.10;;
13263;SDS011;6700;51.988;7.646;2022-11-27T10:55:20;9.27;;;7.33;;
13263;SDS011;6700;51.988;7.646;2022-11-27T11:00:36;12.13;;;7.73;;
13263;SDS011;6700;51.988;7.646;2022-11-27T11:03:04;11.63;;;6.70;;
13263;SDS011;6700;51.988;7.646;2022-11-27T11:05:32;10.97;;;7.37;;
13263;SDS011;6700;51.988;7.646;2022-11-27T11:08:19;9.40;;;6.90;;
13263;SDS011;6700;51.988;7.646;2022-11-27T11:11:01;8.67;;;7.20;;
13263;SDS011;6700;51.988;7.646;2022-11-27T11:13:29;10.13;;;7.40;;
13263;SDS011;6700;51.988;7.646;2022-11-27T11:16:03;12.87;;;7.93;;
13263;SDS011;6700;51.988;7.646;2022-11-27T11:18:32;11.23;;;6.93;;
13263;SDS011;6700;51.988;7.646;2022-11-27T11:21:00;12.37;;;7.30;;
13263;SDS011;6700;51.988;7.646;2022-11-27T11:25:57;13.57;;;7.47;;
13263;SDS011;6700;51.988;7.646;2022-11-27T11:28:25;10.07;;;8.03;;
13263;SDS011;6700;51.988;7.646;2022-11-27T11:30:54;10.50;;;7.20;;
13263;SDS011;6700;51.988;7.646;2022-11-27T11:33:22;10.20;;;7.70;;
13263;SDS011;6700;51.988;7.646;2022-11-27T11:35:53;12.57;;;7.63;;
13263;SDS011;6700;51.988;7.646;2022-11-27T11:38:28;12.17;;;7.33;;
13263;SDS011;6700;51.988;7.646;2022-11-27T11:40:58;13.20;;;7.73;;
13263;SDS011;6700;51.988;7.646;2022-11-27T11:43:30;9.40;;;6.83;;
13263;SDS011;6700;51.988;7.646;2022-11-27T11:48:33;12.10;;;6.83;;
13263;SDS011;6700;51.988;7.646;2022-11-27T11:51:11;12.77;;;7.77;;
13263;SDS011;6700;51.988;7.646;2022-11-27T11:53:41;11.10;;;7.90;;
13263;SDS011;6700;51.988;7.646;2022-11-27T12:09:23;11.93;;;7.73;;
13263;SDS011;6700;51.988;7.646;2022-11-27T12:11:56;10.20;;;7.63;;
13263;SDS011;6700;51.988;7.646;2022-11-27T12:14:42;11.90;;;8.10;;
13263;SDS011;6700;51.988;7.646;2022-11-27T12:19:54;7.30;;;6.60;;
13263;SDS011;6700;51.988;7.646;2022-11-27T12:30:19;9.23;;;6.63;;
13263;SDS011;6700;51.988;7.646;2022-11-27T12:35:23;13.57;;;6.20;;
13263;SDS011;6700;51.988;7.646;2022-11-27T12:38:05;8.50;;;7.07;;
13263;SDS011;6700;51.988;7.646;2022-11-27T12:43:21;9.83;;;7.50;;
13263;SDS011;6700;51.988;7.646;2022-11-27T12:45:57;9.33;;;6.60;;
13263;SDS011;6700;51.988;7.646;2022-11-27T12:48:39;9.50;;;5.90;;
13263;SDS011;6700;51.988;7.646;2022-11-27T12:51:08;9.80;;;6.83;;
13263;SDS011;6700;51.988;7.646;2022-11-27T12:53:44;10.70;;;6.40;;
13263;SDS011;6700;51.988;7.646;2022-11-27T12:58:43;10.20;;;6.03;;
13263;SDS011;6700;51.988;7.646;2022-11-27T13:01:14;7.23;;;6.43;;
13263;SDS011;6700;51.988;7.646;2022-11-27T13:06:18;7.83;;;6.30;;
13263;SDS011;6700;51.988;7.646;2022-11-27T13:08:56;8.60;;;6.27;;
13263;SDS011;6700;51.988;7.646;2022-11-27T13:11:29;9.03;;;6.33;;
13263;SDS011;6700;51.988;7.646;2022-11-27T13:14:11;8.90;;;6.63;;
13263;SDS011;6700;51.988;7.646;2022-11-27T13:16:41;11.33;;;6.23;;
13263;SDS011;6700;51.988;7.646;2022-11-27T13:21:45;7.83;;;5.50;;
13263;SDS011;6700;51.988;7.646;2022-11-27T13:24:13;7.43;;;6.00;;
13263;SDS011;6700;51.988;7.646;2022-11-27T13:29:30;8.77;;;5.87;;
13263;SDS011;6700;51.988;7.646;2022-11-27T13:31:59;7.80;;;6.50;;
13263;SDS011;6700;51.988;7.646;2022-11-27T13:34:27;10.87;;;5.83;;
13263;SDS011;6700;51.988;7.646;2022-11-27T13:39:23;6.30;;;5.30;;
13263;SDS011;6700;51.988;7.646;2022-11-27T13:41:58;7.30;;;6.07;;
13263;SDS011;6700;51.988;7.646;2022-11-27T13:44:26;10.17;;;6.00;;
13263;SDS011;6700;51.988;7.646;2022-11-27T13:46:56;8.07;;;5.30;;
13263;SDS011;6700;51.988;7.646;2022-11-27T13:49:26;9.90;;;5.70;;
13263;SDS011;6700;51.988;7.646;2022-11-27T13:52:15;9.00;;;5.37;;
13263;SDS011;6700;51.988;7.646;2022-11-27T13:55:00;8.37;;;5.40;;
13263;SDS011;6700;51.988;7.646;2022-11-27T13:57:28;5.77;;;5.17;;
13263;SDS011;6700;51.988;7.646;2022-11-27T14:00:12;7.97;;;5.87;;
13263;SDS011;6700;51.988;7.646;2022-11-27T14:02:42;8.27;;;5.30;;
13263;SDS011;6700;51.988;7.646;2022-11-27T14:05:20;7.47;;;5.10;;
13263;SDS011;6700;51.988;7.646;2022-11-27T14:07:48;5.93;;;4.93;;
13263;SDS011;6700;51.988;7.646;2022-11-27T14:10:17;6.10;;;4.93;;
13263;SDS011;6700;51.988;7.646;2022-11-27T14:13:19;7.07;;;5.80;;
13263;SDS011;6700;51.988;7.646;2022-11-27T14:15:39;6.57;;;5.90;;
13263;SDS011;6700;51.988;7.646;2022-11-27T14:20:35;9.53;;;5.90;;
13263;SDS011;6700;51.988;7.646;2022-11-27T14:23:03;12.93;;;9.87;;
13263;SDS011;6700;51.988;7.646;2022-11-27T14:25:39;9.70;;;6.67;;
13263;SDS011;6700;51.988;7.646;2022-11-27T14:28:12;8.33;;;6.17;;
13263;SDS011;6700;51.988;7.646;2022-11-27T14:30:44;7.50;;;5.90;;
13263;SDS011;6700;51.988;7.646;2022-11-27T14:33:16;7.23;;;6.43;;
13263;SDS011;6700;51.988;7.646;2022-11-27T14:35:46;8.30;;;5.83;;
13263;SDS011;6700;51.988;7.646;2022-11-27T14:38:14;8.43;;;5.33;;
13263;SDS011;6700;51.988;7.646;2022-11-27T14:40:42;5.37;;;4.80;;
13263;SDS011;6700;51.988;7.646;2022-11-27T14:43:12;7.17;;;5.33;;
13263;SDS011;6700;51.988;7.646;2022-11-27T14:45:43;7.77;;;5.20;;
13263;SDS011;6700;51.988;7.646;2022-11-27T14:48:14;7.37;;;5.93;;
13263;SDS011;6700;51.988;7.646;2022-11-27T14:50:44;7.87;;;6.27;;
13263;SDS011;6700;51.988;7.646;2022-11-27T14:53:11;11.80;;;9.33;;
13263;SDS011;6700;51.988;7.646;2022-11-27T14:55:38;11.30;;;7.90;;
13263;SDS011;6700;51.988;7.646;2022-11-27T14:58:06;14.17;;;11.00;;
13263;SDS011;6700;51.988;7.646;2022-11-27T15:00:35;10.90;;;9.40;;
13263;SDS011;6700;51.988;7.646;2022-11-27T15:03:08;11.97;;;9.13;;
13263;SDS011;6700;51.988;7.646;2022-11-27T15:05:36;11.07;;;8.77;;
13263;SDS011;6700;51.988;7.646;2022-11-27T15:08:06;11.23;;;9.00;;
13263;SDS011;6700;51.988;7.646;2022-11-27T15:10:38;9.27;;;7.90;;
13263;SDS011;6700;51.988;7.646;2022-11-27T15:13:07;9.53;;;8.53;;
13263;SDS011;6700;51.988;7.646;2022-11-27T15:15:50;9.87;;;8.20;;
13263;SDS011;6700;51.988;7.646;2022-11-27T15:18:20;10.07;;;7.77;;
13263;SDS011;6700;51.988;7.646;2022-11-27T15:20:48;10.83;;;8.43;;
13263;SDS011;6700;51.988;7.646;2022-11-27T15:23:18;9.73;;;8.73;;
13263;SDS011;6700;51.988;7.646;2022-11-27T15:25:47;13.27;;;9.40;;
13263;SDS011;6700;51.988;7.646;2022-11-27T15:30:49;10.77;;;9.23;;
13263;SDS011;6700;51.988;7.646;2022-11-27T15:33:23;11.67;;;9.47;;
13263;SDS011;6700;51.988;7.646;2022-11-27T15:35:51;10.97;;;8.70;;
13263;SDS011;6700;51.988;7.646;2022-11-27T15:38:19;10.40;;;8.60;;
13263;SDS011;6700;51.988;7.646;2022-11-27T15:40:55;12.37;;;8.67;;
13263;SDS011;6700;51.988;7.646;2022-11-27T15:43:22;13.50;;;9.00;;
13263;SDS011;6700;51.988;7.646;2022-11-27T15:45:49;16.73;;;9.53;;
13263;SDS011;6700;51.988;7.646;2022-11-27T15:48:17;13.93;;;9.50;;
13263;SDS011;6700;51.988;7.646;2022-11-27T15:50:44;11.43;;;8.13;;
13263;SDS011;6700;51.988;7.646;2022-11-27T15:53:17;13.57;;;9.00;;
13263;SDS011;6700;51.988;7.646;2022-11-27T15:55:44;12.33;;;8.57;;
13263;SDS011;6700;51.988;7.646;2022-11-27T15:58:11;11.27;;;9.03;;
13263;SDS011;6700;51.988;7.646;2022-11-27T16:00:38;12.97;;;9.43;;
13263;SDS011;6700;51.988;7.646;2022-11-27T16:03:05;11.07;;;8.73;;
13263;SDS011;6700;51.988;7.646;2022-11-27T16:05:32;13.83;;;10.27;;
13263;SDS011;6700;51.988;7.646;2022-11-27T16:08:00;15.10;;;9.50;;
13263;SDS011;6700;51.988;7.646;2022-11-27T16:10:27;13.77;;;9.87;;
13263;SDS011;6700;51.988;7.646;2022-11-27T16:12:54;12.87;;;9.93;;
13263;SDS011;6700;51.988;7.646;2022-11-27T16:15:22;16.53;;;10.60;;
13263;SDS011;6700;51.988;7.646;2022-11-27T16:17:56;12.80;;;9.80;;
13263;SDS011;6700;51.988;7.646;2022-11-27T16:20:23;12.60;;;10.53;;
13263;SDS011;6700;51.988;7.646;2022-11-27T16:22:51;16.17;;;10.33;;
13263;SDS011;6700;51.988;7.646;2022-11-27T16:25:18;17.60;;;10.50;;
13263;SDS011;6700;51.988;7.646;2022-11-27T16:27:45;12.90;;;9.60;;
13263;SDS011;6700;51.988;7.646;2022-11-27T16:30:12;11.40;;;8.93;;
13263;SDS011;6700;51.988;7.646;2022-11-27T16:32:39;9.93;;;8.20;;
13263;SDS011;6700;51.988;7.646;2022-11-27T16:35:06;10.37;;;9.20;;
13263;SDS011;6700;51.988;7.646;2022-11-27T16:37:34;13.47;;;8.37;;
13263;SDS011;6700;51.988;7.646;2022-11-27T16:40:01;9.90;;;7.47;;
13263;SDS011;6700;51.988;7.646;2022-11-27T16:42:28;10.23;;;7.07;;
13263;SDS011;6700;51.988;7.646;2022-11-27T16:44:55;9.73;;;7.23;;
13263;SDS011;6700;51.988;7.646;2022-11-27T16:47:22;8.57;;;7.27;;
13263;SDS011;6700;51.988;7.646;2022-11-27T16:49:58;8.10;;;6.27;;